KAUS METAR and TAF | Updated Today

KAUS METAR

Austin Bergstrom International Airport

Observation time: 3 min. ago

KAUS 292253Z 19006KT 10SM FEW200 19/05 A3012 RMK AO2 SLP200 T01940050

Need help? Read our tutorial on how to read METARs or read the parsed version below.

Austin Bergstrom International Airport (KAUS) METAR

  • Weather conditions on Mon, 29 Nov 2021 22:53:00 +0000 (3 min. ago):
  • Present conditions: Dry
  • Clouds: A few at 6096 meters
  • Visibility: 16093 meters
  • Wind: 190 degrees at 6 knots
  • Temperature: 19 celsius
  • Dew point: 5 celsius
  • Pressure: 30.12 inHg
  • Remarks: AO2 SLP200 T01940050


Useful to know...

KAUS TAF

Austin Bergstrom International Airport

KAUS 291720Z 2918/3024 21006KT P6SM SKC
Observation time: 5:36 hr. ago
Need help? Read our tutorial on how to read TAFs or read the parsed version below.

Parsed version of TAF for Austin Bergstrom International Airport (KAUS)

  • From 29 November at 18:00 UTC, to day 30 of the month at 24:00 UTC
  • Clouds: No significant changes expected
  • Wind: 210 degrees at 6

Airports near KAUS